createdAt,value
2023-04-17T00:01:06.985Z,13.32
2023-04-17T00:03:34.324Z,15.55
2023-04-17T00:06:01.978Z,12.05
2023-04-17T00:08:29.257Z,12.68
2023-04-17T00:11:07.082Z,12.88
2023-04-17T00:13:36.145Z,13.25
2023-04-17T00:16:03.845Z,13.32
2023-04-17T00:18:31.113Z,12.82
2023-04-17T00:20:58.704Z,13.80
2023-04-17T00:23:25.999Z,14.55
2023-04-17T00:25:54.717Z,13.50
2023-04-17T00:28:22.049Z,13.60
2023-04-17T00:30:49.670Z,12.90
2023-04-17T00:33:16.926Z,13.75
2023-04-17T00:35:54.423Z,13.35
2023-04-17T00:38:21.985Z,12.90
2023-04-17T00:40:49.666Z,14.75
2023-04-17T00:43:17.372Z,16.50
2023-04-17T00:45:46.510Z,19.33
2023-04-17T00:48:15.122Z,14.68
2023-04-17T00:50:44.122Z,13.18
2023-04-17T00:53:12.246Z,13.35
2023-04-17T00:55:40.653Z,13.80
2023-04-17T00:58:08.244Z,13.95
2023-04-17T01:00:35.851Z,13.88
2023-04-17T01:03:03.623Z,17.25
2023-04-17T01:05:31.442Z,14.10
2023-04-17T01:07:58.739Z,14.23
2023-04-17T01:10:26.290Z,14.32
2023-04-17T01:13:06.602Z,14.77
2023-04-17T01:15:34.905Z,15.68
2023-04-17T01:18:02.829Z,14.52
2023-04-17T01:20:30.497Z,14.07
2023-04-17T01:22:58.061Z,13.52
2023-04-17T01:25:26.025Z,13.57
2023-04-17T01:27:53.537Z,13.52
2023-04-17T01:30:21.209Z,14.38
2023-04-17T01:32:48.572Z,14.32
2023-04-17T01:35:16.280Z,14.57
2023-04-17T01:37:43.569Z,13.75
2023-04-17T01:40:11.312Z,14.75
2023-04-17T01:42:48.596Z,15.30
2023-04-17T01:45:16.219Z,14.98
2023-04-17T01:47:43.519Z,14.90
2023-04-17T01:50:11.363Z,15.77
2023-04-17T01:52:38.683Z,14.25
2023-04-17T01:55:06.546Z,15.05
2023-04-17T01:57:33.859Z,16.13
2023-04-17T02:00:01.539Z,15.73
2023-04-17T02:02:28.987Z,15.60
2023-04-17T02:04:56.676Z,16.30
2023-04-17T02:07:34.122Z,15.52
2023-04-17T02:10:01.753Z,15.02
2023-04-17T02:12:29.081Z,15.27
2023-04-17T02:14:56.600Z,14.77
2023-04-17T02:17:24.895Z,16.15
2023-04-17T02:19:52.503Z,16.95
2023-04-17T02:22:19.769Z,16.42
2023-04-17T02:24:47.336Z,18.42
2023-04-17T02:27:14.575Z,16.45
2023-04-17T02:29:44.072Z,16.77
2023-04-17T02:32:11.331Z,17.08
2023-04-17T02:34:38.880Z,17.25
2023-04-17T02:37:06.194Z,19.08
2023-04-17T02:39:33.818Z,16.95
2023-04-17T02:42:01.384Z,17.13
2023-04-17T02:44:28.972Z,17.35
2023-04-17T02:46:56.322Z,17.38
2023-04-17T02:49:33.045Z,17.00
2023-04-17T02:52:00.343Z,16.15
2023-04-17T02:54:35.787Z,17.60
2023-04-17T02:57:03.075Z,16.10
2023-04-17T02:59:30.826Z,16.60
2023-04-17T03:01:58.203Z,17.73
2023-04-17T03:04:27.961Z,17.98
2023-04-17T03:06:56.367Z,18.80
2023-04-17T03:09:24.000Z,18.35
2023-04-17T03:11:51.294Z,17.65
2023-04-17T03:14:18.863Z,19.23
2023-04-17T03:16:46.379Z,17.52
2023-04-17T03:19:14.067Z,18.83
2023-04-17T03:21:41.310Z,18.20
2023-04-17T03:24:08.884Z,18.50
2023-04-17T03:26:36.158Z,18.95
2023-04-17T03:29:03.726Z,19.27
2023-04-17T03:31:31.152Z,18.55
2023-04-17T03:33:58.774Z,19.35
2023-04-17T03:36:27.447Z,19.38
2023-04-17T03:38:54.974Z,20.27
2023-04-17T03:41:22.244Z,21.58
2023-04-17T03:43:49.846Z,18.02
2023-04-17T03:46:17.211Z,20.55
2023-04-17T03:48:44.778Z,19.33
2023-04-17T03:51:12.116Z,18.50
2023-04-17T03:53:39.790Z,19.85
2023-04-17T03:56:07.162Z,18.35
2023-04-17T03:58:34.814Z,18.92
2023-04-17T04:01:02.124Z,19.77
2023-04-17T04:03:29.666Z,18.88
2023-04-17T04:05:57.584Z,17.92
2023-04-17T04:08:24.862Z,20.02
2023-04-17T04:10:52.465Z,19.35
2023-04-17T04:13:19.765Z,18.65
2023-04-17T04:15:47.395Z,19.38
2023-04-17T04:18:14.746Z,19.08
2023-04-17T04:20:42.321Z,19.65
2023-04-17T04:23:09.597Z,19.77
2023-04-17T04:25:37.233Z,19.42
2023-04-17T04:28:04.631Z,18.83
2023-04-17T04:30:32.166Z,18.35
2023-04-17T04:32:59.577Z,19.17
2023-04-17T04:35:27.182Z,19.92
2023-04-17T04:37:54.505Z,19.77
2023-04-17T04:40:22.081Z,19.60
2023-04-17T04:42:49.394Z,19.90
2023-04-17T04:45:16.949Z,20.55
2023-04-17T04:47:44.326Z,20.25
2023-04-17T04:50:11.971Z,18.55
2023-04-17T04:52:39.316Z,19.90
2023-04-17T04:55:07.018Z,18.95
2023-04-17T04:57:34.323Z,20.85
2023-04-17T05:00:02.009Z,19.50
2023-04-17T05:02:29.439Z,18.70
2023-04-17T05:04:57.163Z,19.77
2023-04-17T05:07:24.561Z,19.55
2023-04-17T05:09:52.147Z,17.83
2023-04-17T05:12:19.421Z,18.35
2023-04-17T05:14:47.003Z,17.48
2023-04-17T05:17:14.287Z,17.23
2023-04-17T05:19:41.860Z,17.20
2023-04-17T05:22:09.191Z,18.02
2023-04-17T05:24:36.833Z,17.50
2023-04-17T05:27:04.241Z,17.95
2023-04-17T05:29:31.793Z,17.67
2023-04-17T05:32:01.273Z,16.55
2023-04-17T05:34:28.981Z,16.52
2023-04-17T05:36:56.289Z,16.48
2023-04-17T05:39:23.900Z,15.93
2023-04-17T05:41:51.196Z,15.40
2023-04-17T05:44:18.729Z,15.85
2023-04-17T05:46:46.023Z,14.85
2023-04-17T05:49:13.789Z,15.13
2023-04-17T05:51:41.096Z,14.98
2023-04-17T05:54:08.726Z,14.35
2023-04-17T05:56:36.031Z,15.43
2023-04-17T05:59:03.591Z,13.50
2023-04-17T06:01:32.097Z,13.23
2023-04-17T06:04:01.524Z,12.75
2023-04-17T06:06:29.294Z,13.00
2023-04-17T06:08:56.911Z,15.73
2023-04-17T06:11:24.240Z,13.60
2023-04-17T06:13:51.841Z,12.13
2023-04-17T06:16:19.202Z,12.52
2023-04-17T06:18:46.823Z,12.02
2023-04-17T06:21:14.263Z,12.63
2023-04-17T06:23:41.918Z,12.27
2023-04-17T06:26:09.222Z,12.48
2023-04-17T06:28:36.855Z,12.57
2023-04-17T06:31:04.302Z,11.75
2023-04-17T06:33:31.912Z,11.77
2023-04-17T06:35:59.171Z,11.45
2023-04-17T06:38:26.734Z,11.48
2023-04-17T06:40:54.001Z,11.30
2023-04-17T06:43:21.589Z,12.07
2023-04-17T06:45:49.016Z,12.02
2023-04-17T06:48:16.570Z,11.25
2023-04-17T06:50:44.017Z,11.85
2023-04-17T06:53:11.595Z,11.75
2023-04-17T06:55:38.960Z,11.82
2023-04-17T06:58:09.372Z,10.50
2023-04-17T07:00:36.645Z,12.00
2023-04-17T07:03:04.934Z,11.68
2023-04-17T07:05:32.498Z,10.38
2023-04-17T07:08:00.142Z,10.50
2023-04-17T07:10:27.522Z,11.18
2023-04-17T07:12:55.178Z,10.73
2023-04-17T07:15:22.497Z,9.98
2023-04-17T07:17:50.411Z,10.10
2023-04-17T07:20:17.791Z,10.40
2023-04-17T07:22:45.383Z,10.10
2023-04-17T07:25:12.674Z,9.70
2023-04-17T07:27:40.302Z,10.15
2023-04-17T07:30:08.229Z,10.07
2023-04-17T07:32:37.933Z,9.93
2023-04-17T07:35:05.469Z,9.35
2023-04-17T07:37:34.223Z,9.93
2023-04-17T07:40:01.517Z,10.50
2023-04-17T07:42:29.045Z,9.65
2023-04-17T07:44:57.103Z,9.80
2023-04-17T07:47:24.799Z,9.27
2023-04-17T07:49:52.285Z,9.45
2023-04-17T07:52:19.844Z,9.50
2023-04-17T07:54:47.150Z,9.43
2023-04-17T07:57:14.840Z,8.63
2023-04-17T07:59:42.226Z,9.70
2023-04-17T08:02:10.081Z,10.30
2023-04-17T08:04:37.595Z,10.00
2023-04-17T08:07:05.717Z,9.23
2023-04-17T08:09:32.982Z,10.05
2023-04-17T08:12:00.529Z,10.75
2023-04-17T08:14:27.884Z,10.15
2023-04-17T08:16:55.517Z,9.90
2023-04-17T08:19:22.919Z,10.38
2023-04-17T08:21:50.848Z,10.70
2023-04-17T08:24:19.741Z,10.07
2023-04-17T08:26:47.745Z,10.10
2023-04-17T08:29:15.339Z,10.35
2023-04-17T08:31:43.301Z,10.80
2023-04-17T08:34:14.755Z,11.10
2023-04-17T08:36:43.206Z,10.77
2023-04-17T08:39:10.854Z,10.88
2023-04-17T08:41:42.560Z,10.05
2023-04-17T08:44:10.222Z,11.52
2023-04-17T08:46:38.406Z,11.23
2023-04-17T08:49:05.901Z,10.32
2023-04-17T08:51:33.606Z,11.07
2023-04-17T08:54:00.935Z,10.68
2023-04-17T08:56:28.879Z,11.38
2023-04-17T08:58:56.605Z,10.30
2023-04-17T09:01:25.285Z,11.27
2023-04-17T09:03:52.998Z,11.68
2023-04-17T09:06:21.766Z,11.57
2023-04-17T09:08:56.080Z,12.05
2023-04-17T09:11:23.879Z,12.32
2023-04-17T09:13:51.214Z,12.45
2023-04-17T09:16:18.939Z,12.63
2023-04-17T09:18:48.167Z,12.25
2023-04-17T09:21:17.007Z,12.25
2023-04-17T09:23:48.944Z,12.90
2023-04-17T09:26:20.529Z,13.15
2023-04-17T09:29:04.470Z,14.48
2023-04-17T09:31:32.537Z,11.90
2023-04-17T09:34:01.615Z,12.40
2023-04-17T09:36:30.351Z,12.90
2023-04-17T09:38:58.393Z,13.32
2023-04-17T09:41:30.179Z,13.48
2023-04-17T09:43:58.469Z,14.10
2023-04-17T09:46:38.448Z,13.90
2023-04-17T09:49:28.806Z,14.18
2023-04-17T09:51:57.611Z,14.60
2023-04-17T09:54:25.169Z,14.63
2023-04-17T09:56:53.017Z,13.88
2023-04-17T09:59:20.462Z,14.45
2023-04-17T10:01:48.389Z,14.98
2023-04-17T10:04:16.086Z,15.02
2023-04-17T10:06:43.880Z,13.77
2023-04-17T10:09:11.194Z,13.93
2023-04-17T10:11:40.653Z,15.23
2023-04-17T10:14:07.881Z,14.48
2023-04-17T10:16:36.280Z,14.52
2023-04-17T10:19:22.151Z,13.20
2023-04-17T10:22:10.700Z,14.57
2023-04-17T10:24:38.192Z,12.00
2023-04-17T10:27:25.796Z,13.60
2023-04-17T10:29:53.239Z,13.57
2023-04-17T10:32:21.137Z,12.68
2023-04-17T10:34:48.629Z,13.10
2023-04-17T10:37:16.233Z,12.88
2023-04-17T10:39:58.954Z,13.07
2023-04-17T10:42:28.623Z,12.82
2023-04-17T10:44:57.753Z,12.23
2023-04-17T10:49:56.833Z,11.70
2023-04-17T10:52:42.491Z,11.75
2023-04-17T10:55:19.115Z,12.07
2023-04-17T10:57:53.318Z,11.55
2023-04-17T11:00:21.714Z,10.77
2023-04-17T11:02:50.958Z,9.88
2023-04-17T11:05:20.097Z,10.90
2023-04-17T11:07:47.990Z,11.48
2023-04-17T11:10:18.636Z,10.63
2023-04-17T11:12:47.186Z,11.23
2023-04-17T11:15:14.555Z,10.90
2023-04-17T11:17:48.798Z,10.65
2023-04-17T11:20:20.189Z,10.48
2023-04-17T11:22:47.948Z,11.85
2023-04-17T11:25:22.050Z,10.68
2023-04-17T11:27:55.332Z,10.38
2023-04-17T11:30:37.188Z,10.55
2023-04-17T11:33:08.264Z,9.98
2023-04-17T11:35:36.654Z,9.95
2023-04-17T11:38:30.320Z,8.57
2023-04-17T11:40:57.958Z,8.77
2023-04-17T11:43:25.766Z,8.82
2023-04-17T11:45:53.806Z,8.55
2023-04-17T11:48:22.156Z,8.80
2023-04-17T11:50:49.671Z,9.25
2023-04-17T11:53:17.738Z,8.50
2023-04-17T11:55:45.428Z,8.48
2023-04-17T11:58:13.816Z,8.00
2023-04-17T12:00:41.258Z,8.55
2023-04-17T12:03:32.049Z,8.43
2023-04-17T12:06:00.597Z,8.38
2023-04-17T12:08:28.693Z,8.07
2023-04-17T12:10:56.188Z,8.57
2023-04-17T12:13:24.185Z,8.27
2023-04-17T12:15:51.447Z,9.20
2023-04-17T12:18:19.099Z,8.35
2023-04-17T12:20:46.384Z,8.95
2023-04-17T12:23:14.081Z,8.40
2023-04-17T12:25:41.353Z,9.15
2023-04-17T12:28:08.973Z,8.80
2023-04-17T12:30:38.456Z,9.32
2023-04-17T12:33:08.654Z,7.88
2023-04-17T12:35:36.281Z,8.95
2023-04-17T12:38:03.978Z,9.13
2023-04-17T12:40:31.290Z,8.60
2023-04-17T12:42:58.868Z,8.88
2023-04-17T12:45:26.310Z,7.88
2023-04-17T12:47:54.174Z,9.00
2023-04-17T12:50:21.523Z,9.30
2023-04-17T12:52:49.186Z,8.00
2023-04-17T12:55:16.513Z,7.93
2023-04-17T12:57:44.303Z,7.82
2023-04-17T13:00:12.075Z,8.63
2023-04-17T13:02:39.874Z,8.70
2023-04-17T13:05:07.531Z,8.50
2023-04-17T13:07:37.949Z,8.05
2023-04-17T13:10:05.501Z,8.75
2023-04-17T13:12:33.085Z,8.98
2023-04-17T13:15:00.397Z,7.88
2023-04-17T13:17:28.044Z,8.52
2023-04-17T13:19:55.365Z,8.50
2023-04-17T13:22:22.898Z,9.27
2023-04-17T13:24:51.649Z,9.13
2023-04-17T13:27:19.204Z,8.25
2023-04-17T13:29:46.481Z,8.38
2023-04-17T13:32:14.040Z,8.57
2023-04-17T13:34:41.328Z,7.82
2023-04-17T13:37:08.928Z,7.28
2023-04-17T13:39:36.471Z,7.32
2023-04-17T13:42:04.129Z,7.90
2023-04-17T13:44:31.460Z,7.68
2023-04-17T13:46:59.099Z,8.48
2023-04-17T13:49:26.479Z,7.05
2023-04-17T13:51:54.107Z,7.47
2023-04-17T13:54:21.354Z,6.93
2023-04-17T13:56:48.955Z,7.07
2023-04-17T13:59:16.325Z,6.88
2023-04-17T14:01:46.153Z,6.78
2023-04-17T14:04:13.703Z,6.05
2023-04-17T14:06:41.577Z,6.63
2023-04-17T14:09:08.905Z,6.40
2023-04-17T14:11:36.431Z,6.50
2023-04-17T14:14:03.724Z,6.32
2023-04-17T14:16:31.374Z,5.72
2023-04-17T14:19:06.385Z,5.80
2023-04-17T14:21:40.700Z,6.05
2023-04-17T14:24:08.061Z,5.85
2023-04-17T14:26:35.624Z,5.97
2023-04-17T14:29:03.144Z,5.75
2023-04-17T14:31:30.884Z,6.00
2023-04-17T14:33:58.315Z,6.93
2023-04-17T14:36:26.178Z,7.30
2023-04-17T14:38:53.681Z,7.03
2023-04-17T14:41:21.483Z,7.20
2023-04-17T14:43:48.763Z,8.10
2023-04-17T14:46:16.411Z,7.35
2023-04-17T14:48:54.726Z,8.35
2023-04-17T14:51:25.867Z,7.55
2023-04-17T14:53:53.460Z,7.68
2023-04-17T14:56:21.168Z,7.20
2023-04-17T14:58:48.570Z,7.13
2023-04-17T15:01:16.401Z,7.70
2023-04-17T15:03:47.420Z,7.88
2023-04-17T15:06:16.706Z,6.32
2023-04-17T15:08:44.149Z,7.53
2023-04-17T15:11:11.861Z,7.07
2023-04-17T15:13:39.236Z,7.32
2023-04-17T15:16:08.809Z,6.68
2023-04-17T15:18:36.309Z,6.75
2023-04-17T15:21:04.013Z,6.07
2023-04-17T15:23:31.765Z,6.50
2023-04-17T15:25:59.438Z,6.00
2023-04-17T15:28:27.187Z,5.20
2023-04-17T15:30:55.371Z,5.50
2023-04-17T15:33:23.032Z,5.50
2023-04-17T15:35:54.370Z,6.00
2023-04-17T15:38:21.788Z,5.28
2023-04-17T15:40:49.430Z,4.88
2023-04-17T15:43:18.169Z,5.57
2023-04-17T15:45:48.528Z,5.45
2023-04-17T15:48:20.476Z,4.75
2023-04-17T15:50:48.260Z,5.93
2023-04-17T15:53:17.382Z,6.35
2023-04-17T15:55:45.541Z,6.20
2023-04-17T15:58:14.517Z,6.13
2023-04-17T16:00:44.442Z,6.63
2023-04-17T16:03:11.891Z,6.68
2023-04-17T16:05:40.105Z,6.47
2023-04-17T16:08:07.454Z,7.25
2023-04-17T16:10:35.320Z,6.97
2023-04-17T16:13:02.647Z,7.35
2023-04-17T16:15:30.248Z,7.82
2023-04-17T16:17:57.719Z,8.20
2023-04-17T16:20:25.576Z,7.90
2023-04-17T16:22:52.915Z,7.90
2023-04-17T16:25:21.005Z,8.35
2023-04-17T16:27:48.516Z,7.38
2023-04-17T16:30:20.698Z,8.18
2023-04-17T16:32:48.050Z,8.55
2023-04-17T16:35:15.820Z,7.40
2023-04-17T16:37:43.119Z,7.75
2023-04-17T16:40:11.429Z,8.25
2023-04-17T16:42:38.846Z,7.72
2023-04-17T16:45:06.710Z,8.23
2023-04-17T16:47:34.154Z,8.45
2023-04-17T16:50:01.881Z,7.75
2023-04-17T16:52:29.202Z,7.93
2023-04-17T16:54:57.038Z,9.55
2023-04-17T16:57:24.308Z,8.75
2023-04-17T16:59:52.056Z,8.90
2023-04-17T17:02:19.401Z,7.32
2023-04-17T17:04:47.234Z,7.57
2023-04-17T17:07:14.558Z,7.82
2023-04-17T17:09:42.221Z,7.85
2023-04-17T17:12:09.553Z,7.75
2023-04-17T17:14:37.311Z,8.90
2023-04-17T17:17:04.656Z,8.02
2023-04-17T17:19:32.461Z,7.68
2023-04-17T17:21:59.836Z,8.35
2023-04-17T17:24:27.502Z,8.25
2023-04-17T17:26:54.806Z,9.18
2023-04-17T17:29:22.529Z,8.40
2023-04-17T17:31:49.931Z,8.55
2023-04-17T17:34:26.115Z,7.35
2023-04-17T17:36:54.365Z,7.85
2023-04-17T17:39:22.484Z,7.18
2023-04-17T17:41:49.844Z,6.70
2023-04-17T17:44:17.902Z,7.50
2023-04-17T17:46:45.347Z,7.28
2023-04-17T17:49:13.101Z,7.47
2023-04-17T17:51:40.417Z,7.25
2023-04-17T17:54:08.134Z,7.18
2023-04-17T17:56:35.421Z,8.10
2023-04-17T17:59:03.327Z,7.40
2023-04-17T18:01:30.904Z,8.40
2023-04-17T18:03:58.923Z,8.00
2023-04-17T18:06:26.436Z,9.30
2023-04-17T18:08:54.197Z,8.88
2023-04-17T18:11:21.573Z,9.00
2023-04-17T18:13:49.175Z,9.55
2023-04-17T18:16:16.699Z,9.88
2023-04-17T18:18:45.790Z,9.63
2023-04-17T18:21:13.192Z,9.32
2023-04-17T18:23:40.834Z,9.27
2023-04-17T18:26:08.138Z,9.00
2023-04-17T18:28:35.784Z,9.07
2023-04-17T18:31:03.262Z,9.35
2023-04-17T18:33:31.219Z,9.25
2023-04-17T18:35:58.540Z,8.60
2023-04-17T18:38:26.306Z,9.45
2023-04-17T18:40:54.482Z,8.88
2023-04-17T18:43:22.347Z,8.65
2023-04-17T18:45:49.819Z,9.13
2023-04-17T18:48:17.604Z,9.48
2023-04-17T18:50:44.962Z,9.60
2023-04-17T18:53:12.929Z,9.18
2023-04-17T18:55:40.265Z,9.82
2023-04-17T18:58:08.117Z,9.38
2023-04-17T19:00:35.663Z,8.57
2023-04-17T19:03:06.764Z,9.60
2023-04-17T19:05:34.489Z,9.23
2023-04-17T19:08:02.222Z,9.27
2023-04-17T19:10:31.395Z,8.88
2023-04-17T19:12:59.356Z,9.38
2023-04-17T19:15:26.878Z,9.32
2023-04-17T19:17:54.629Z,10.05
2023-04-17T19:20:22.160Z,9.73
2023-04-17T19:22:49.839Z,9.80
2023-04-17T19:25:17.374Z,9.95
2023-04-17T19:27:45.215Z,9.70
2023-04-17T19:30:12.855Z,10.05
2023-04-17T19:32:42.420Z,9.95
2023-04-17T19:35:14.249Z,10.18
2023-04-17T19:40:21.565Z,9.60
2023-04-17T19:42:52.520Z,10.07
2023-04-17T19:45:19.900Z,9.80
2023-04-17T19:47:47.949Z,10.27
2023-04-17T19:50:15.468Z,10.13
2023-04-17T19:52:43.091Z,10.48
2023-04-17T19:55:10.463Z,11.38
2023-04-17T19:57:38.129Z,10.90
2023-04-17T20:00:06.302Z,10.95
2023-04-17T20:02:34.258Z,38.50
2023-04-17T20:05:01.764Z,11.82
2023-04-17T20:07:29.749Z,10.20
2023-04-17T20:09:57.075Z,11.57
2023-04-17T20:12:24.762Z,10.95
2023-04-17T20:14:52.047Z,11.05
2023-04-17T20:17:19.709Z,11.32
2023-04-17T20:19:47.078Z,18.20
2023-04-17T20:22:14.679Z,11.48
2023-04-17T20:24:41.980Z,10.55
2023-04-17T20:27:09.565Z,10.57
2023-04-17T20:29:36.919Z,10.88
2023-04-17T20:32:04.515Z,11.23
2023-04-17T20:34:31.822Z,11.57
2023-04-17T20:36:59.389Z,11.18
2023-04-17T20:39:26.646Z,16.35
2023-04-17T20:41:54.607Z,12.32
2023-04-17T20:44:21.963Z,12.10
2023-04-17T20:46:49.758Z,11.45
2023-04-17T20:49:17.061Z,11.55
2023-04-17T20:51:44.715Z,11.55
2023-04-17T20:54:12.276Z,12.65
2023-04-17T20:56:40.156Z,12.05
2023-04-17T20:59:07.614Z,11.85
2023-04-17T21:01:47.561Z,11.75
2023-04-17T21:04:16.598Z,11.63
2023-04-17T21:06:44.361Z,11.35
2023-04-17T21:09:11.633Z,12.73
2023-04-17T21:11:39.252Z,11.18
2023-04-17T21:14:06.742Z,11.82
2023-04-17T21:16:34.836Z,12.52
2023-04-17T21:19:02.303Z,12.45
2023-04-17T21:21:30.438Z,12.70
2023-04-17T21:23:57.726Z,12.57
2023-04-17T21:26:30.925Z,13.60
2023-04-17T21:28:58.228Z,12.82
2023-04-17T21:31:25.967Z,13.85
2023-04-17T21:33:53.635Z,13.40
2023-04-17T21:36:22.353Z,12.88
2023-04-17T21:38:49.756Z,13.38
2023-04-17T21:41:17.369Z,13.73
2023-04-17T21:43:44.960Z,13.73
2023-04-17T21:46:13.058Z,12.65
2023-04-17T21:48:40.408Z,12.77
2023-04-17T21:51:07.979Z,13.52
2023-04-17T21:53:36.055Z,14.02
2023-04-17T21:56:06.829Z,13.95
2023-04-17T21:58:34.600Z,13.10
2023-04-17T22:01:02.853Z,13.27
2023-04-17T22:03:30.335Z,13.38
2023-04-17T22:05:58.220Z,12.32
2023-04-17T22:08:25.525Z,12.77
2023-04-17T22:10:53.125Z,12.10
2023-04-17T22:13:20.821Z,12.57
2023-04-17T22:15:48.770Z,13.55
2023-04-17T22:18:16.131Z,12.48
2023-04-17T22:20:43.753Z,11.77
2023-04-17T22:23:11.076Z,12.27
2023-04-17T22:25:38.653Z,11.85
2023-04-17T22:28:05.946Z,12.63
2023-04-17T22:30:33.563Z,11.35
2023-04-17T22:33:00.870Z,12.02
2023-04-17T22:35:28.515Z,11.98
2023-04-17T22:37:55.829Z,11.85
2023-04-17T22:40:24.592Z,13.60
2023-04-17T22:42:51.872Z,12.18
2023-04-17T22:45:19.465Z,11.88
2023-04-17T22:47:46.861Z,12.00
2023-04-17T22:50:14.506Z,12.88
2023-04-17T22:52:41.892Z,11.93
2023-04-17T22:55:09.512Z,12.40
2023-04-17T22:57:36.791Z,12.63
2023-04-17T23:00:04.650Z,13.35
2023-04-17T23:02:31.995Z,13.60
2023-04-17T23:08:03.279Z,13.05
2023-04-17T23:10:30.842Z,13.13
2023-04-17T23:12:58.189Z,12.38
2023-04-17T23:15:25.765Z,12.88
2023-04-17T23:17:53.086Z,12.98
2023-04-17T23:20:20.722Z,13.55
2023-04-17T23:22:48.094Z,13.75
2023-04-17T23:25:15.776Z,14.85
2023-04-17T23:27:43.078Z,13.90
2023-04-17T23:30:10.798Z,14.20
2023-04-17T23:32:38.222Z,13.38
2023-04-17T23:35:06.100Z,13.70
2023-04-17T23:37:33.320Z,14.35
2023-04-17T23:40:00.932Z,12.73
2023-04-17T23:42:28.213Z,14.00
2023-04-17T23:44:55.798Z,14.60
2023-04-17T23:47:23.169Z,14.05
2023-04-17T23:49:50.799Z,14.27
2023-04-17T23:52:18.030Z,14.02
2023-04-17T23:54:45.572Z,14.85
2023-04-17T23:57:12.806Z,14.43
2023-04-17T23:59:40.345Z,14.00
